This is the latest recevied weather packets stored in our database for station/object VK5TRM-14. If no packets are shown the sender has not sent any weather packets the latest 10 day(s).
| Time | Temp. | Humidity | Pressure | Rain* | Wind** | Luminosity | Snow |
|---|---|---|---|---|---|---|---|
| 1777892406 | 14.44° C | 72% | 1018.6 hPa | 0 mm | - | - | - |
| 1777891505 | 14.44° C | 72% | 1018.6 hPa | 0 mm | - | - | - |
| 1777890605 | 14.44° C | 68% | 1018.1 hPa | 0 mm | - | - | - |
| 1777889705 | 14.44° C | 68% | 1018.1 hPa | 0 mm | - | - | - |
| 1777888805 | 13.89° C | 76% | 1017.7 hPa | 0 mm | - | - | - |
| 1777887905 | 13.89° C | 76% | 1017.7 hPa | 0 mm | - | - | - |
| 1777887005 | 15° C | 72% | 1017 hPa | 0 mm | - | - | - |
| 1777886105 | 15° C | 72% | 1017 hPa | 0 mm | - | - | - |
| 1777885207 | 16.67° C | 65% | 1016.5 hPa | 0 mm | - | - | - |
| 1777884305 | 16.67° C | 65% | 1016.5 hPa | 0 mm | - | - | - |
| 1777883405 | 17.78° C | 60% | 1015.7 hPa | 0 mm | - | - | - |
| 1777882505 | 17.78° C | 60% | 1015.7 hPa | 0 mm | - | - | - |
| 1777881605 | 18.33° C | 56% | 1015.4 hPa | 0 mm | - | - | - |
| 1777880705 | 18.33° C | 56% | 1015.4 hPa | 0 mm | - | - | - |
| 1777879805 | 19.44° C | 56% | 1015 hPa | 0 mm | - | - | - |
| 1777878906 | 19.44° C | 56% | 1015 hPa | 0 mm | - | - | - |
| 1777878005 | 19.44° C | 54% | 1014.8 hPa | 0 mm | - | - | - |
| 1777877105 | 19.44° C | 54% | 1014.8 hPa | 0 mm | - | - | - |
| 1777876205 | 19.44° C | 52% | 1014.6 hPa | 0 mm | - | - | - |
| 1777875305 | 19.44° C | 52% | 1014.6 hPa | 0 mm | - | - | - |
| 1777874405 | 19.44° C | 54% | 1014.3 hPa | 0 mm | - | - | - |
| 1777873505 | 19.44° C | 54% | 1014.3 hPa | 0 mm | - | - | - |
| 1777872606 | 18.89° C | 54% | 1014.2 hPa | 0 mm | - | - | - |
| 1777871705 | 18.89° C | 54% | 1014.2 hPa | 0 mm | - | - | - |
| 1777870805 | 20° C | 51% | 1013.8 hPa | 0 mm | - | - | - |
* Rain since midnight (hover to see other rain measurements)
** Current wind speed in m/s (hover to see current wind gust speed)